createdAt,value
2022-10-12T00:01:13.002Z,7.10
2022-10-12T00:03:40.746Z,7.10
2022-10-12T00:06:17.589Z,7.00
2022-10-12T00:08:46.308Z,7.10
2022-10-12T00:11:25.645Z,7.10
2022-10-12T00:13:53.939Z,7.00
2022-10-12T00:16:22.808Z,7.00
2022-10-12T00:18:55.388Z,6.90
2022-10-12T00:21:28.096Z,6.90
2022-10-12T00:24:00.879Z,6.90
2022-10-12T00:26:29.365Z,6.90
2022-10-12T00:29:00.053Z,6.90
2022-10-12T00:31:29.027Z,7.00
2022-10-12T00:33:59.903Z,7.00
2022-10-12T00:36:31.636Z,6.90
2022-10-12T00:38:59.711Z,6.90
2022-10-12T00:41:31.303Z,6.90
2022-10-12T00:43:59.302Z,6.90
2022-10-12T00:46:37.544Z,6.90
2022-10-12T00:49:20.059Z,6.90
2022-10-12T00:52:00.488Z,6.80
2022-10-12T00:54:33.941Z,6.90
2022-10-12T00:57:04.630Z,6.80
2022-10-12T00:59:40.826Z,6.80
2022-10-12T01:02:09.059Z,6.80
2022-10-12T01:04:38.961Z,6.70
2022-10-12T01:07:06.768Z,6.70
2022-10-12T01:09:36.906Z,6.60
2022-10-12T01:12:06.431Z,6.60
2022-10-12T01:14:35.286Z,6.60
2022-10-12T01:17:23.124Z,6.50
2022-10-12T01:19:54.977Z,6.60
2022-10-12T01:22:25.201Z,6.50
2022-10-12T01:25:04.850Z,6.50
2022-10-12T01:27:41.232Z,6.50
2022-10-12T01:30:11.685Z,6.50
2022-10-12T01:32:42.284Z,6.50
2022-10-12T01:35:21.787Z,6.40
2022-10-12T01:38:20.406Z,6.40
2022-10-12T01:41:03.717Z,6.50
2022-10-12T01:43:42.440Z,6.50
2022-10-12T01:46:12.761Z,6.50
2022-10-12T01:48:41.693Z,6.50
2022-10-12T01:51:12.441Z,6.40
2022-10-12T01:53:50.956Z,6.40
2022-10-12T01:56:50.098Z,6.40
2022-10-12T01:59:55.397Z,6.40
2022-10-12T02:02:37.087Z,6.40
2022-10-12T02:05:10.340Z,6.40
2022-10-12T02:08:15.812Z,6.30
2022-10-12T02:10:57.096Z,6.40
2022-10-12T02:13:29.831Z,6.30
2022-10-12T02:15:59.848Z,6.30
2022-10-12T02:18:29.118Z,6.30
2022-10-12T02:20:59.472Z,6.30
2022-10-12T02:23:28.666Z,6.30
2022-10-12T02:25:58.653Z,6.30
2022-10-12T02:28:29.715Z,6.30
2022-10-12T02:31:18.514Z,6.30
2022-10-12T02:33:49.406Z,6.30
2022-10-12T02:36:47.867Z,6.30
2022-10-12T02:39:21.082Z,6.20
2022-10-12T02:41:52.616Z,6.20
2022-10-12T02:44:24.496Z,6.20
2022-10-12T02:46:54.526Z,6.20
2022-10-12T02:49:24.686Z,6.10
2022-10-12T02:51:52.849Z,6.10
2022-10-12T02:54:21.137Z,6.10
2022-10-12T02:56:48.788Z,6.10
2022-10-12T02:59:17.798Z,6.10
2022-10-12T03:01:45.437Z,6.10
2022-10-12T03:04:13.177Z,6.10
2022-10-12T03:06:42.509Z,6.10
2022-10-12T03:09:10.166Z,6.10
2022-10-12T03:11:37.819Z,6.10
2022-10-12T03:14:05.441Z,6.10
2022-10-12T03:16:33.019Z,6.10
2022-10-12T03:19:00.630Z,6.10
2022-10-12T03:21:28.241Z,6.10
2022-10-12T03:23:55.806Z,6.20
2022-10-12T03:26:23.428Z,6.10
2022-10-12T03:28:51.130Z,6.10
2022-10-12T03:31:21.669Z,6.20
2022-10-12T03:34:07.926Z,6.10
2022-10-12T03:36:35.619Z,6.00
2022-10-12T03:39:03.367Z,6.00
2022-10-12T03:41:33.532Z,6.00
2022-10-12T03:44:01.369Z,6.00
2022-10-12T03:46:28.957Z,6.00
2022-10-12T03:48:58.791Z,6.00
2022-10-12T03:51:29.465Z,6.10
2022-10-12T03:53:57.143Z,6.00
2022-10-12T03:56:24.755Z,6.00
2022-10-12T03:58:52.381Z,5.90
2022-10-12T04:01:20.125Z,5.90
2022-10-12T04:03:47.705Z,6.00
2022-10-12T04:06:15.263Z,5.90
2022-10-12T04:08:49.873Z,6.00
2022-10-12T04:11:20.240Z,5.90
2022-10-12T04:13:48.060Z,5.90
2022-10-12T04:16:15.647Z,5.90
2022-10-12T04:18:43.332Z,6.00
2022-10-12T04:21:15.940Z,5.90
2022-10-12T04:23:43.859Z,5.90
2022-10-12T04:26:11.653Z,5.90
2022-10-12T04:28:39.847Z,5.90
2022-10-12T04:31:07.729Z,5.80
2022-10-12T04:33:35.358Z,5.80
2022-10-12T04:36:03.091Z,5.80
2022-10-12T04:38:30.705Z,5.80
2022-10-12T04:40:58.296Z,5.80
2022-10-12T04:43:26.416Z,5.80
2022-10-12T04:45:58.741Z,5.80
2022-10-12T04:48:27.328Z,5.80
2022-10-12T04:50:54.949Z,5.80
2022-10-12T04:53:22.630Z,5.80
2022-10-12T04:55:50.231Z,5.70
2022-10-12T04:58:17.833Z,5.80
2022-10-12T05:00:47.551Z,5.70
2022-10-12T05:03:15.321Z,5.70
2022-10-12T05:05:44.167Z,5.70
2022-10-12T05:08:12.985Z,5.80
2022-10-12T05:10:40.653Z,5.60
2022-10-12T05:13:08.081Z,5.70
2022-10-12T05:15:35.578Z,5.60
2022-10-12T05:18:02.988Z,5.60
2022-10-12T05:20:30.402Z,5.70
2022-10-12T05:22:58.473Z,5.60
2022-10-12T05:25:26.004Z,5.60
2022-10-12T05:27:53.394Z,5.60
2022-10-12T05:30:20.928Z,5.60
2022-10-12T05:32:49.558Z,5.50
2022-10-12T05:35:17.171Z,5.50
2022-10-12T05:37:47.496Z,5.60
2022-10-12T05:40:15.042Z,5.50
2022-10-12T05:42:44.454Z,5.50
2022-10-12T05:45:12.465Z,5.50
2022-10-12T05:47:40.795Z,5.60
2022-10-12T05:50:08.819Z,5.60
2022-10-12T05:52:36.559Z,5.70
2022-10-12T05:55:04.363Z,5.60
2022-10-12T05:57:31.754Z,5.60
2022-10-12T05:59:59.196Z,5.60
2022-10-12T06:02:26.670Z,5.70
2022-10-12T06:04:54.123Z,5.60
2022-10-12T06:07:21.557Z,5.70
2022-10-12T06:09:49.440Z,5.80
2022-10-12T06:12:16.828Z,5.90
2022-10-12T06:14:44.206Z,6.00
2022-10-12T06:17:11.690Z,6.10
2022-10-12T06:19:39.093Z,6.10
2022-10-12T06:22:09.160Z,6.10
2022-10-12T06:24:37.439Z,6.20
2022-10-12T06:27:05.003Z,6.30
2022-10-12T06:29:32.673Z,6.30
2022-10-12T06:32:00.073Z,6.50
2022-10-12T06:34:27.892Z,6.50
2022-10-12T06:36:59.560Z,6.40
2022-10-12T06:39:32.047Z,6.40
2022-10-12T06:41:59.996Z,6.50
2022-10-12T06:44:27.633Z,6.60
2022-10-12T06:46:55.279Z,6.70
2022-10-12T06:49:22.860Z,6.70
2022-10-12T06:51:50.460Z,6.70
2022-10-12T06:54:18.137Z,6.70
2022-10-12T06:56:45.682Z,6.80
2022-10-12T06:59:13.556Z,6.80
2022-10-12T07:01:41.229Z,6.90
2022-10-12T07:04:08.901Z,7.00
2022-10-12T07:06:36.482Z,7.10
2022-10-12T07:09:04.162Z,7.30
2022-10-12T07:11:31.743Z,7.40
2022-10-12T07:13:59.355Z,7.50
2022-10-12T07:16:27.054Z,7.60
2022-10-12T07:18:54.684Z,7.60
2022-10-12T07:21:22.220Z,7.70
2022-10-12T07:23:49.826Z,7.60
2022-10-12T07:26:17.478Z,7.50
2022-10-12T07:28:45.354Z,7.60
2022-10-12T07:31:13.070Z,7.60
2022-10-12T07:33:40.644Z,7.70
2022-10-12T07:36:21.281Z,7.80
2022-10-12T07:38:50.107Z,7.90
2022-10-12T07:41:17.761Z,7.80
2022-10-12T07:43:45.885Z,8.00
2022-10-12T07:46:13.667Z,7.90
2022-10-12T07:48:45.620Z,8.20
2022-10-12T07:51:14.959Z,8.50
2022-10-12T07:53:45.447Z,8.60
2022-10-12T07:56:17.030Z,8.80
2022-10-12T07:58:52.855Z,9.00
2022-10-12T08:01:22.486Z,9.10
2022-10-12T08:03:50.965Z,9.20
2022-10-12T08:06:22.233Z,9.30
2022-10-12T08:08:50.467Z,9.60
2022-10-12T08:11:19.226Z,9.80
2022-10-12T08:13:47.214Z,10.00
2022-10-12T08:16:18.098Z,10.10
2022-10-12T08:18:46.134Z,10.30
2022-10-12T08:21:15.774Z,10.40
2022-10-12T08:23:46.604Z,10.40
2022-10-12T08:26:15.741Z,10.40
2022-10-12T08:28:44.172Z,10.50
2022-10-12T08:31:15.000Z,10.50
2022-10-12T08:33:42.636Z,10.50
2022-10-12T08:36:12.409Z,10.60
2022-10-12T08:38:40.374Z,10.50
2022-10-12T08:41:40.021Z,10.60
2022-10-12T08:44:13.313Z,10.60
2022-10-12T08:46:41.039Z,10.70
2022-10-12T08:49:22.575Z,10.80
2022-10-12T08:51:57.265Z,10.70
2022-10-12T08:54:29.242Z,10.70
2022-10-12T08:56:57.866Z,10.60
2022-10-12T08:59:27.659Z,10.60
2022-10-12T09:02:32.925Z,10.70
2022-10-12T09:05:07.672Z,10.80
2022-10-12T09:07:37.409Z,11.00
2022-10-12T09:10:24.114Z,11.00
2022-10-12T09:13:06.996Z,11.00
2022-10-12T09:16:03.546Z,11.00
2022-10-12T09:18:41.256Z,11.00
2022-10-12T09:21:18.050Z,11.20
2022-10-12T09:23:46.401Z,11.20
2022-10-12T09:26:21.710Z,11.30
2022-10-12T09:28:49.452Z,11.40
2022-10-12T09:31:27.281Z,11.50
2022-10-12T09:33:58.605Z,11.80
2022-10-12T09:36:32.190Z,12.20
2022-10-12T09:39:05.051Z,12.50
2022-10-12T09:41:42.701Z,12.80
2022-10-12T09:44:35.204Z,13.10
2022-10-12T09:47:09.130Z,13.40
2022-10-12T09:49:41.740Z,13.60
2022-10-12T09:52:11.086Z,13.80
2022-10-12T09:54:48.031Z,13.90
2022-10-12T09:57:26.354Z,14.00
2022-10-12T09:59:55.485Z,14.10
2022-10-12T10:02:25.320Z,14.20
2022-10-12T10:04:54.355Z,14.50
2022-10-12T10:07:29.754Z,14.70
2022-10-12T10:10:12.411Z,14.90
2022-10-12T10:12:48.243Z,15.10
2022-10-12T10:15:22.572Z,15.20
2022-10-12T10:17:55.325Z,15.60
2022-10-12T10:20:34.156Z,15.90
2022-10-12T10:23:04.834Z,16.10
2022-10-12T10:25:34.210Z,16.10
2022-10-12T10:28:23.961Z,16.20
2022-10-12T10:31:02.737Z,16.60
2022-10-12T10:33:32.549Z,16.90
2022-10-12T10:36:00.130Z,17.20
2022-10-12T10:38:31.049Z,17.60
2022-10-12T10:41:01.790Z,18.00
2022-10-12T10:43:31.746Z,19.30
2022-10-12T10:46:02.665Z,21.10
2022-10-12T10:48:37.356Z,22.50
2022-10-12T10:51:06.983Z,24.00
2022-10-12T10:53:46.713Z,25.40
2022-10-12T10:56:29.725Z,26.10
2022-10-12T10:59:05.261Z,26.10
2022-10-12T11:01:52.702Z,26.30
2022-10-12T11:04:32.549Z,27.20
2022-10-12T11:07:24.383Z,27.10
2022-10-12T11:09:55.999Z,27.80
2022-10-12T11:12:43.543Z,27.90
2022-10-12T11:15:20.782Z,27.50
2022-10-12T11:17:52.247Z,27.40
2022-10-12T11:20:43.524Z,27.40
2022-10-12T11:23:22.043Z,28.30
2022-10-12T11:25:55.624Z,29.00
2022-10-12T11:28:26.840Z,29.10
2022-10-12T11:30:54.631Z,29.30
2022-10-12T11:33:38.569Z,29.50
2022-10-12T11:36:10.820Z,29.20
2022-10-12T11:38:54.396Z,29.00
2022-10-12T11:41:36.020Z,29.40
2022-10-12T11:44:14.102Z,28.70
2022-10-12T11:46:51.442Z,27.10
2022-10-12T11:49:44.472Z,25.60
2022-10-12T11:52:12.690Z,24.50
2022-10-12T11:54:48.623Z,23.70
2022-10-12T11:57:28.303Z,22.80
2022-10-12T12:00:07.019Z,22.80
2022-10-12T12:02:41.363Z,23.30
2022-10-12T12:05:16.927Z,23.20
2022-10-12T12:08:03.019Z,24.50
2022-10-12T12:10:34.801Z,25.70
2022-10-12T12:13:12.807Z,27.60
2022-10-12T12:15:41.148Z,29.00
2022-10-12T12:18:18.643Z,30.40
2022-10-12T12:20:48.830Z,31.10
2022-10-12T12:23:35.367Z,30.80
2022-10-12T12:26:16.560Z,30.20
2022-10-12T12:28:49.305Z,29.80
2022-10-12T12:31:22.999Z,28.90
2022-10-12T12:34:06.909Z,28.20
2022-10-12T12:36:42.468Z,27.70
2022-10-12T12:39:24.496Z,26.90
2022-10-12T12:42:05.910Z,25.80
2022-10-12T12:44:43.624Z,24.80
2022-10-12T12:47:43.521Z,24.30
2022-10-12T12:50:02.277Z,24.30
2022-10-12T12:52:40.749Z,25.10
2022-10-12T12:55:14.208Z,25.40
2022-10-12T12:58:02.379Z,25.40
2022-10-12T13:01:04.561Z,24.80
2022-10-12T13:03:44.066Z,23.90
2022-10-12T13:06:39.905Z,23.20
2022-10-12T13:09:33.048Z,22.70
2022-10-12T13:12:23.794Z,22.70
2022-10-12T13:15:00.577Z,23.40
2022-10-12T13:17:43.703Z,24.30
2022-10-12T13:20:21.096Z,24.60
2022-10-12T13:22:52.822Z,24.50
2022-10-12T13:25:29.565Z,24.40
2022-10-12T13:28:02.755Z,24.20
2022-10-12T13:30:43.139Z,24.40
2022-10-12T13:33:12.668Z,24.90
2022-10-12T13:35:48.712Z,25.20
2022-10-12T13:38:21.103Z,25.40
2022-10-12T13:41:08.994Z,25.00
2022-10-12T13:43:49.057Z,24.50
2022-10-12T13:46:43.122Z,23.70
2022-10-12T13:49:16.849Z,23.40
2022-10-12T13:51:47.812Z,22.80
2022-10-12T13:54:38.669Z,22.50
2022-10-12T13:57:39.693Z,22.00
2022-10-12T14:00:16.434Z,21.50
2022-10-12T14:02:57.844Z,21.10
2022-10-12T14:05:27.094Z,20.90
2022-10-12T14:08:00.055Z,20.80
2022-10-12T14:10:36.710Z,20.70
2022-10-12T14:13:05.584Z,20.80
2022-10-12T14:15:43.503Z,21.40
2022-10-12T14:18:39.582Z,22.00
2022-10-12T14:21:27.269Z,22.50
2022-10-12T14:24:06.948Z,22.80
2022-10-12T14:26:44.381Z,22.80
2022-10-12T14:29:39.388Z,22.80
2022-10-12T14:32:10.619Z,22.20
2022-10-12T14:34:40.824Z,21.60
2022-10-12T14:37:14.929Z,21.30
2022-10-12T14:39:49.079Z,21.00
2022-10-12T14:42:19.678Z,20.70
2022-10-12T14:44:48.949Z,20.50
2022-10-12T14:47:19.891Z,20.20
2022-10-12T14:49:49.987Z,20.00
2022-10-12T14:52:24.506Z,19.90
2022-10-12T14:54:53.938Z,19.70
2022-10-12T14:57:23.269Z,19.70
2022-10-12T14:59:50.983Z,19.90
2022-10-12T15:02:44.754Z,19.80
2022-10-12T15:05:14.458Z,19.80
2022-10-12T15:07:42.905Z,19.50
2022-10-12T15:10:10.511Z,19.40
2022-10-12T15:12:38.261Z,19.30
2022-10-12T15:15:28.646Z,19.50
2022-10-12T15:17:57.889Z,19.60
2022-10-12T15:20:27.160Z,19.50
2022-10-12T15:22:54.863Z,19.50
2022-10-12T15:25:36.845Z,19.40
2022-10-12T15:28:05.078Z,19.30
2022-10-12T15:30:47.360Z,19.20
2022-10-12T15:33:24.482Z,19.00
2022-10-12T15:35:52.166Z,18.80
2022-10-12T15:38:22.835Z,18.70
2022-10-12T15:40:58.327Z,18.60
2022-10-12T15:43:38.044Z,18.50
2022-10-12T15:46:10.823Z,18.30
2022-10-12T15:48:40.058Z,18.10
2022-10-12T15:51:20.697Z,17.90
2022-10-12T15:53:49.154Z,17.70
2022-10-12T15:56:18.494Z,17.50
2022-10-12T15:58:46.202Z,17.40
2022-10-12T16:01:18.120Z,17.30
2022-10-12T16:03:46.824Z,17.20
2022-10-12T16:06:15.125Z,17.20
2022-10-12T16:08:43.294Z,17.00
2022-10-12T16:11:16.212Z,16.90
2022-10-12T16:13:51.025Z,16.80
2022-10-12T16:16:21.641Z,16.80
2022-10-12T16:18:49.408Z,16.60
2022-10-12T16:21:17.056Z,16.60
2022-10-12T16:23:44.725Z,16.40
2022-10-12T16:26:14.467Z,16.30
2022-10-12T16:28:42.495Z,16.20
2022-10-12T16:31:17.374Z,16.10
2022-10-12T16:33:45.685Z,15.90
2022-10-12T16:36:15.458Z,15.80
2022-10-12T16:38:44.234Z,15.70
2022-10-12T16:41:16.479Z,15.50
2022-10-12T16:43:44.533Z,15.40
2022-10-12T16:46:12.107Z,15.30
2022-10-12T16:48:43.325Z,15.10
2022-10-12T16:51:15.509Z,14.90
2022-10-12T16:53:43.775Z,14.80
2022-10-12T16:56:11.409Z,14.60
2022-10-12T16:58:39.070Z,14.50
2022-10-12T17:01:11.601Z,14.40
2022-10-12T17:03:40.223Z,14.20
2022-10-12T17:06:08.119Z,14.00
2022-10-12T17:08:38.849Z,14.00
2022-10-12T17:11:13.358Z,13.90
2022-10-12T17:13:46.607Z,13.70
2022-10-12T17:16:36.042Z,13.70
2022-10-12T17:19:03.784Z,13.60
2022-10-12T17:21:31.469Z,13.50
2022-10-12T17:24:00.249Z,13.50
2022-10-12T17:26:29.026Z,13.40
2022-10-12T17:28:56.674Z,13.30
2022-10-12T17:31:24.431Z,13.20
2022-10-12T17:33:52.118Z,13.20
2022-10-12T17:36:22.293Z,13.10
2022-10-12T17:38:52.224Z,13.10
2022-10-12T17:41:22.529Z,13.00
2022-10-12T17:43:53.130Z,13.00
2022-10-12T17:46:23.444Z,13.00
2022-10-12T17:48:51.226Z,12.80
2022-10-12T17:51:19.018Z,12.90
2022-10-12T17:53:46.702Z,12.80
2022-10-12T17:56:15.226Z,12.80
2022-10-12T17:58:43.340Z,12.80
2022-10-12T18:01:13.715Z,12.90
2022-10-12T18:03:44.229Z,12.80
2022-10-12T18:06:18.808Z,12.80
2022-10-12T18:08:46.923Z,12.80
2022-10-12T18:11:19.607Z,12.80
2022-10-12T18:13:53.338Z,12.80
2022-10-12T18:16:26.813Z,12.90
2022-10-12T18:18:55.376Z,12.90
2022-10-12T18:21:28.263Z,12.90
2022-10-12T18:23:55.962Z,12.80
2022-10-12T18:26:27.718Z,12.90
2022-10-12T18:28:58.064Z,12.80
2022-10-12T18:31:27.106Z,12.80
2022-10-12T18:33:56.493Z,12.90
2022-10-12T18:36:24.632Z,12.80
2022-10-12T18:38:52.882Z,12.80
2022-10-12T18:41:25.735Z,12.70
2022-10-12T18:43:58.437Z,12.70
2022-10-12T18:46:28.113Z,12.70
2022-10-12T18:48:56.141Z,12.60
2022-10-12T18:51:28.254Z,12.60
2022-10-12T18:54:05.531Z,12.50
2022-10-12T18:56:35.238Z,12.50
2022-10-12T18:59:03.133Z,12.50
2022-10-12T19:01:32.858Z,12.40
2022-10-12T19:04:03.031Z,12.40
2022-10-12T19:06:33.624Z,12.40
2022-10-12T19:09:01.970Z,12.40
2022-10-12T19:11:32.872Z,12.40
2022-10-12T19:14:03.780Z,12.60
2022-10-12T19:16:32.107Z,12.40
2022-10-12T19:19:05.004Z,12.40
2022-10-12T19:21:33.054Z,12.40
2022-10-12T19:24:08.221Z,12.40
2022-10-12T19:26:36.150Z,12.40
2022-10-12T19:29:04.380Z,12.50
2022-10-12T19:31:41.561Z,12.50
2022-10-12T19:34:12.617Z,12.50
2022-10-12T19:36:41.353Z,12.50
2022-10-12T19:39:15.863Z,12.40
2022-10-12T19:41:49.134Z,12.40
2022-10-12T19:44:19.041Z,12.40
2022-10-12T19:46:51.411Z,12.30
2022-10-12T19:49:22.273Z,12.30
2022-10-12T19:51:49.864Z,12.30
2022-10-12T19:54:17.862Z,12.20
2022-10-12T19:56:45.722Z,12.20
2022-10-12T19:59:13.427Z,12.10
2022-10-12T20:01:41.706Z,12.10
2022-10-12T20:04:11.913Z,12.10
2022-10-12T20:06:39.793Z,12.10
2022-10-12T20:09:11.440Z,12.10
2022-10-12T20:11:39.634Z,12.10
2022-10-12T20:14:07.885Z,12.00
2022-10-12T20:16:36.283Z,11.90
2022-10-12T20:19:08.299Z,11.90
2022-10-12T20:21:38.750Z,11.90
2022-10-12T20:24:09.719Z,11.90
2022-10-12T20:26:37.500Z,11.80
2022-10-12T20:29:05.150Z,11.80
2022-10-12T20:31:32.786Z,11.90
2022-10-12T20:34:05.620Z,12.00
2022-10-12T20:36:33.284Z,11.90
2022-10-12T20:39:00.864Z,11.90
2022-10-12T20:41:29.207Z,11.90
2022-10-12T20:43:58.327Z,11.80
2022-10-12T20:46:33.005Z,11.80
2022-10-12T20:49:02.330Z,11.70
2022-10-12T20:51:41.677Z,11.60
2022-10-12T20:54:15.856Z,11.60
2022-10-12T20:56:43.954Z,11.50
2022-10-12T20:59:11.763Z,11.50
2022-10-12T21:01:43.503Z,11.40
2022-10-12T21:04:16.089Z,11.40
2022-10-12T21:06:43.688Z,11.30
2022-10-12T21:09:14.327Z,11.20
2022-10-12T21:11:43.611Z,11.20
2022-10-12T21:14:12.966Z,11.10
2022-10-12T21:16:43.619Z,11.10
2022-10-12T21:19:16.411Z,11.20
2022-10-12T21:21:46.408Z,11.20
2022-10-12T21:24:14.871Z,11.30
2022-10-12T21:26:42.902Z,11.20
2022-10-12T21:29:13.498Z,11.20
2022-10-12T21:31:41.045Z,11.10
2022-10-12T21:34:09.988Z,11.10
2022-10-12T21:36:39.875Z,11.00
2022-10-12T21:39:12.696Z,10.90
2022-10-12T21:41:41.058Z,10.90
2022-10-12T21:44:10.463Z,10.90
2022-10-12T21:46:38.583Z,10.90
2022-10-12T21:49:09.787Z,10.80
2022-10-12T21:51:37.690Z,10.70
2022-10-12T21:54:07.095Z,10.80
2022-10-12T21:56:36.500Z,10.80
2022-10-12T21:59:05.857Z,10.80
2022-10-12T22:01:38.501Z,10.80
2022-10-12T22:04:11.713Z,10.70
2022-10-12T22:06:39.685Z,10.50
2022-10-12T22:09:11.224Z,10.50
2022-10-12T22:11:38.880Z,10.40
2022-10-12T22:14:12.465Z,10.40
2022-10-12T22:16:40.408Z,10.40
2022-10-12T22:19:10.778Z,10.40
2022-10-12T22:21:38.416Z,10.40
2022-10-12T22:24:06.306Z,10.40
2022-10-12T22:26:35.182Z,10.40
2022-10-12T22:29:05.765Z,10.40
2022-10-12T22:31:34.244Z,10.40
2022-10-12T22:34:01.877Z,10.40
2022-10-12T22:36:29.471Z,10.30
2022-10-12T22:38:57.060Z,10.30
2022-10-12T22:41:25.027Z,10.30
2022-10-12T22:43:54.829Z,10.20
2022-10-12T22:46:24.822Z,10.20
2022-10-12T22:48:53.377Z,10.20
2022-10-12T22:51:32.300Z,10.20
2022-10-12T22:54:00.942Z,10.30
2022-10-12T22:56:29.265Z,10.30
2022-10-12T22:59:00.372Z,10.20
2022-10-12T23:01:28.588Z,10.20
2022-10-12T23:03:56.196Z,10.20
2022-10-12T23:06:25.233Z,10.20
2022-10-12T23:08:53.369Z,10.10
2022-10-12T23:11:23.873Z,10.00
2022-10-12T23:13:51.654Z,9.90
2022-10-12T23:16:22.592Z,9.90
2022-10-12T23:19:09.763Z,9.90
2022-10-12T23:21:37.353Z,9.90
2022-10-12T23:24:05.527Z,9.90
2022-10-12T23:26:36.123Z,9.80
2022-10-12T23:29:03.830Z,9.70
2022-10-12T23:31:32.128Z,9.70
2022-10-12T23:34:02.313Z,9.70
2022-10-12T23:36:33.563Z,9.70
2022-10-12T23:39:04.650Z,9.70
2022-10-12T23:41:32.496Z,9.60
2022-10-12T23:44:00.074Z,9.60
2022-10-12T23:46:27.889Z,9.60
2022-10-12T23:48:55.449Z,9.70
2022-10-12T23:51:23.266Z,9.70
2022-10-12T23:53:50.876Z,9.70
2022-10-12T23:56:18.672Z,9.60
2022-10-12T23:58:46.249Z,9.50
